Currently 43°F in Fallbrook, California, USA
43°F
45°F / 43°F
2 mph SW
0.01"
Thursday, February 21, 2019 3:49 AM PST

Fallbrook, California Weather Summary
Last 36 Hours

Temperature Winds Hourly Humidity Dewpoint
Time Report Norm Report Norm Max Gusts Precip. Rpt. Norm Rpt. Norm Pressure
1Thu 03:49 AM  43.0°F  50°F  2 mph SW  1 mph  6 mph  0.00"  100%  85%  43°F  45°F  29.68"
3Thu 03:37 AM  42.8°F  50°F  calm  1 mph  5 mph  ----  100%  85%  43°F  45°F  29.68"
Thu 03:00 AM  43.6°F  50°F  1 mph SW  1 mph  6 mph  0.00"  100%  85%  44°F  45°F  29.69"
Thu 02:00 AM  43.5°F  50°F  calm  calm  4 mph  0.00"  100%  85%  44°F  46°F  29.70"
Thu 01:00 AM  44.0°F  51°F  calm  calm  none  0.01"  100%  86%  44°F  47°F  29.72"
2Thu 12:04 AM  45.4°F  51°F  calm  1 mph  none  ----  100%  87%  45°F  47°F  29.73"
Thu 12:00 AM  45.4°F  51°F  calm  1 mph  none  0.00"  100%  87%  45°F  47°F  29.73"
Wed 11:00 PM  46.2°F  52°F  calm  1 mph  none  0.09"  100%  87%  46°F  48°F  29.75"
Wed 10:00 PM  46.2°F  52°F  calm  1 mph  none  0.01"  100%  87%  46°F  48°F  29.77"
Wed 09:00 PM  46.3°F  53°F  calm  calm  none  0.09"  100%  86%  46°F  49°F  29.78"
Wed 08:00 PM  46.6°F  53°F  calm  1 mph  none  0.04"  100%  85%  47°F  49°F  29.78"
Wed 07:00 PM  47.0°F  54°F  calm  1 mph  none  0.03"  100%  83%  47°F  49°F  29.79"
Wed 06:00 PM  47.3°F  56°F  calm  1 mph  none  0.00"  100%  79%  47°F  49°F  29.80"
Wed 05:00 PM  47.4°F  60°F  calm  2 mph  4 mph  0.01"  100%  70%  47°F  49°F  29.82"
Wed 04:00 PM  49.1°F  63°F  calm  3 mph  7 mph  0.07"  98%  63%  49°F  49°F  29.85"
Wed 03:00 PM  52.7°F  64°F  1 mph SW  4 mph  9 mph  0.00"  78%  60%  46°F  49°F  29.88"
Wed 02:00 PM  51.8°F  65°F  2 mph S  4 mph  12 mph  0.00"  83%  58%  47°F  49°F  29.89"
Wed 01:00 PM  52.3°F  65°F  1 mph S  3 mph  9 mph  0.00"  76%  57%  45°F  49°F  29.92"
Wed 12:00 PM  52.4°F  64°F  4 mph S  3 mph  9 mph  0.00"  72%  58%  43°F  49°F  29.97"
Wed 11:00 AM  52.2°F  62°F  4 mph S  2 mph  9 mph  0.00"  73%  61%  43°F  48°F  29.99"
Wed 10:00 AM  51.0°F  60°F  1 mph S  2 mph  5 mph  0.00"  73%  68%  42°F  49°F  30.02"
Wed 09:00 AM  47.3°F  56°F  calm  1 mph  5 mph  0.00"  78%  75%  41°F  48°F  30.04"
Wed 08:00 AM  42.9°F  51°F  calm  1 mph  none  0.00"  87%  81%  39°F  46°F  30.06"
Wed 07:00 AM  38.6°F  49°F  calm  1 mph  3 mph  0.00"  94%  83%  37°F  44°F  30.07"
Wed 06:00 AM  38.4°F  49°F  calm  1 mph  none  0.00"  92%  83%  36°F  44°F  30.08"
Wed 05:00 AM  39.1°F  49°F  calm  1 mph  none  0.00"  91%  84%  36°F  44°F  30.08"
Wed 04:00 AM  39.1°F  50°F  calm  1 mph  none  0.00"  91%  84%  37°F  45°F  30.07"
Wed 03:00 AM  39.8°F  50°F  calm  1 mph  none  0.00"  89%  85%  37°F  45°F  30.08"
Wed 02:00 AM  40.6°F  50°F  calm  1 mph  none  0.00"  87%  85%  37°F  46°F  30.10"
Wed 01:00 AM  39.5°F  51°F  calm  1 mph  none  0.00"  88%  85%  36°F  46°F  30.11"
Wed 12:00 AM  43.4°F  51°F  calm  1 mph  none  0.00"  80%  86%  37°F  47°F  30.12"
Tue 11:00 PM  41.7°F  52°F  calm  1 mph  none  0.00"  84%  86%  37°F  48°F  30.14"
Tue 10:00 PM  42.3°F  52°F  calm  1 mph  none  0.00"  82%  86%  37°F  48°F  30.14"
Tue 09:00 PM  44.0°F  53°F  calm  1 mph  3 mph  0.00"  79%  86%  37°F  49°F  30.14"
Tue 08:00 PM  45.9°F  54°F  calm  1 mph  3 mph  0.00"  74%  85%  38°F  49°F  30.13"
Tue 07:00 PM  47.1°F  55°F  1 mph SW  1 mph  4 mph  0.00"  71%  83%  38°F  49°F  30.11"
Tue 06:00 PM  48.7°F  56°F  calm  1 mph  5 mph  0.00"  68%  78%  38°F  50°F  30.10"
Tue 05:00 PM  52.0°F  60°F  1 mph SW  2 mph  8 mph  0.00"  59%  70%  38°F  50°F  30.09"
Tue 04:00 PM  55.2°F  63°F  3 mph SW  3 mph  11 mph  0.00"  52%  63%  37°F  49°F  30.09"

  1. Current weather data. No green row appears if the current weather data is also the high or low for the current day.
  2. High temperature for the current day.
  3. Low temperature for the current day.

The Fallbrook weather pages are a service of WeatherCurrents. Fallbrook, California is located in northern San Diego County, close to I15 and Camp Pendleton, and is home to ranches, avocado and citrus groves, and plant nurseries.
Copyright ©Thu Feb 21 03:49:35 PST 2019  WeatherCurrents. All rights reserved. - Submit questions and comments - Privacy Policy

This page automatically refreshes every 10 minutes.